sensor_id;sensor_type;location;lat;lon;timestamp;pressure;altitude;pressure_sealevel;temperature;humidity
7018;BME280;3549;42.162;24.726;2023-03-23T00:01:53;47630.56;;;-141.97;85.27
7018;BME280;3549;42.162;24.726;2023-03-23T00:04:19;47824.69;;;-141.97;85.31
7018;BME280;3549;42.162;24.726;2023-03-23T00:06:46;47878.53;;;-141.97;85.79
7018;BME280;3549;42.162;24.726;2023-03-23T00:09:13;47776.63;;;-141.97;86.07
7018;BME280;3549;42.162;24.726;2023-03-23T00:11:41;47665.16;;;-141.97;85.77
7018;BME280;3549;42.162;24.726;2023-03-23T00:14:06;47842.00;;;-141.97;85.82
7018;BME280;3549;42.162;24.726;2023-03-23T00:16:39;47811.25;;;-141.97;86.29
7018;BME280;3549;42.162;24.726;2023-03-23T00:19:11;47822.78;;;-141.97;86.47
7018;BME280;3549;42.162;24.726;2023-03-23T00:21:41;47895.81;;;-141.97;86.58
7018;BME280;3549;42.162;24.726;2023-03-23T00:24:11;47730.50;;;-141.97;86.52
7018;BME280;3549;42.162;24.726;2023-03-23T00:26:39;47753.56;;;-141.97;86.81
7018;BME280;3549;42.162;24.726;2023-03-23T00:29:07;47747.81;;;-141.97;87.15
7018;BME280;3549;42.162;24.726;2023-03-23T00:31:35;47782.41;;;-141.97;87.43
7018;BME280;3549;42.162;24.726;2023-03-23T00:34:03;47749.72;;;-141.97;88.11
7018;BME280;3549;42.162;24.726;2023-03-23T00:36:30;47742.03;;;-141.97;87.93
7018;BME280;3549;42.162;24.726;2023-03-23T00:38:56;47799.72;;;-141.97;87.99
7018;BME280;3549;42.162;24.726;2023-03-23T00:41:27;47838.16;;;-141.97;88.00
7018;BME280;3549;42.162;24.726;2023-03-23T00:43:54;47811.25;;;-141.97;87.79
7018;BME280;3549;42.162;24.726;2023-03-23T00:46:20;47776.63;;;-141.97;88.02
7018;BME280;3549;42.162;24.726;2023-03-23T00:48:46;47622.88;;;-141.97;88.71
7018;BME280;3549;42.162;24.726;2023-03-23T00:51:11;47776.63;;;-141.97;88.19
7018;BME280;3549;42.162;24.726;2023-03-23T00:53:40;47715.13;;;-141.97;88.43
7018;BME280;3549;42.162;24.726;2023-03-23T00:56:07;47757.41;;;-141.97;88.28
7018;BME280;3549;42.162;24.726;2023-03-23T00:58:33;47803.56;;;-141.97;88.80
7018;BME280;3549;42.162;24.726;2023-03-23T01:00:59;47765.09;;;-141.97;89.19
7018;BME280;3549;42.162;24.726;2023-03-23T01:03:24;47807.41;;;-141.97;89.14
7018;BME280;3549;42.162;24.726;2023-03-23T01:05:51;47722.81;;;-141.97;89.25
7018;BME280;3549;42.162;24.726;2023-03-23T01:08:18;47753.56;;;-141.97;89.78
7018;BME280;3549;42.162;24.726;2023-03-23T01:10:47;47730.50;;;-141.97;89.85
7018;BME280;3549;42.162;24.726;2023-03-23T01:13:13;47807.41;;;-141.97;90.13
7018;BME280;3549;42.162;24.726;2023-03-23T01:15:39;47790.09;;;-141.97;90.42
7018;BME280;3549;42.162;24.726;2023-03-23T01:18:05;47630.56;;;-141.97;91.80
7018;BME280;3549;42.162;24.726;2023-03-23T01:20:31;47792.03;;;-141.97;92.25
7018;BME280;3549;42.162;24.726;2023-03-23T01:23:00;47803.56;;;-141.97;92.77
7018;BME280;3549;42.162;24.726;2023-03-23T01:25:34;47707.44;;;-141.97;93.36
7018;BME280;3549;42.162;24.726;2023-03-23T01:28:00;47830.47;;;-141.97;93.46
7018;BME280;3549;42.162;24.726;2023-03-23T01:30:26;47757.41;;;-141.97;93.67
7018;BME280;3549;42.162;24.726;2023-03-23T01:32:52;47811.25;;;-141.97;93.55
7018;BME280;3549;42.162;24.726;2023-03-23T01:35:18;47788.19;;;-141.97;93.82
7018;BME280;3549;42.162;24.726;2023-03-23T01:37:44;47667.06;;;-141.97;93.69
7018;BME280;3549;42.162;24.726;2023-03-23T01:40:10;47876.59;;;-141.97;93.83
7018;BME280;3549;42.162;24.726;2023-03-23T01:42:37;47782.41;;;-141.97;93.63
7018;BME280;3549;42.162;24.726;2023-03-23T01:45:25;47772.78;;;-141.97;93.40
7018;BME280;3549;42.162;24.726;2023-03-23T01:50:46;47795.88;;;-141.97;94.80
7018;BME280;3549;42.162;24.726;2023-03-23T01:53:15;47753.56;;;-141.97;94.75
7018;BME280;3549;42.162;24.726;2023-03-23T01:55:43;47768.94;;;-141.97;94.25
7018;BME280;3549;42.162;24.726;2023-03-23T01:58:15;47765.09;;;-141.97;94.02
7018;BME280;3549;42.162;24.726;2023-03-23T02:00:42;47786.25;;;-141.97;94.18
7018;BME280;3549;42.162;24.726;2023-03-23T02:03:08;47695.91;;;-141.97;94.38
7018;BME280;3549;42.162;24.726;2023-03-23T02:05:39;47782.41;;;-141.97;94.55
7018;BME280;3549;42.162;24.726;2023-03-23T02:08:06;47761.25;;;-141.97;94.49
7018;BME280;3549;42.162;24.726;2023-03-23T02:10:34;47620.94;;;-141.97;95.02
7018;BME280;3549;42.162;24.726;2023-03-23T02:13:02;47761.25;;;-141.97;97.41
7018;BME280;3549;42.162;24.726;2023-03-23T02:15:43;47726.66;;;-141.97;99.35
7018;BME280;3549;42.162;24.726;2023-03-23T02:34:19;47786.25;;;-141.97;100.00
7018;BME280;3549;42.162;24.726;2023-03-23T02:37:09;47786.25;;;-141.97;100.00
7018;BME280;3549;42.162;24.726;2023-03-23T02:39:45;47757.41;;;-141.97;100.00
7018;BME280;3549;42.162;24.726;2023-03-23T02:42:15;47768.94;;;-141.97;100.00
7018;BME280;3549;42.162;24.726;2023-03-23T02:44:44;47751.66;;;-141.97;100.00
7018;BME280;3549;42.162;24.726;2023-03-23T02:47:14;47686.31;;;-141.97;100.00
7018;BME280;3549;42.162;24.726;2023-03-23T02:49:42;47768.94;;;-141.97;100.00
7018;BME280;3549;42.162;24.726;2023-03-23T02:52:18;47843.91;;;-141.97;100.00
7018;BME280;3549;42.162;24.726;2023-03-23T02:54:47;47795.88;;;-141.97;100.00
7018;BME280;3549;42.162;24.726;2023-03-23T02:57:14;47799.72;;;-141.97;100.00
7018;BME280;3549;42.162;24.726;2023-03-23T02:59:41;47795.88;;;-141.97;100.00
7018;BME280;3549;42.162;24.726;2023-03-23T03:02:16;47876.59;;;-141.97;100.00
7018;BME280;3549;42.162;24.726;2023-03-23T03:04:48;47753.56;;;-141.97;100.00
7018;BME280;3549;42.162;24.726;2023-03-23T03:10:03;47813.16;;;-141.97;100.00
7018;BME280;3549;42.162;24.726;2023-03-23T03:12:51;47743.97;;;-141.97;100.00
7018;BME280;3549;42.162;24.726;2023-03-23T03:18:14;47815.09;;;-141.97;100.00
7018;BME280;3549;42.162;24.726;2023-03-23T03:20:51;47684.38;;;-141.97;100.00
7018;BME280;3549;42.162;24.726;2023-03-23T03:23:20;47792.03;;;-141.97;100.00
7018;BME280;3549;42.162;24.726;2023-03-23T03:25:48;47718.97;;;-141.97;100.00
7018;BME280;3549;42.162;24.726;2023-03-23T03:28:19;47792.03;;;-141.97;100.00
7018;BME280;3549;42.162;24.726;2023-03-23T03:30:57;47770.88;;;-141.97;100.00
7018;BME280;3549;42.162;24.726;2023-03-23T03:33:27;47753.56;;;-141.97;100.00
7018;BME280;3549;42.162;24.726;2023-03-23T03:35:58;47795.88;;;-141.97;100.00
7018;BME280;3549;42.162;24.726;2023-03-23T03:38:26;47740.13;;;-141.97;100.00
7018;BME280;3549;42.162;24.726;2023-03-23T03:40:52;47797.78;;;-141.97;100.00
7018;BME280;3549;42.162;24.726;2023-03-23T03:43:18;47784.34;;;-141.97;100.00
7018;BME280;3549;42.162;24.726;2023-03-23T03:45:44;47857.38;;;-141.97;100.00
7018;BME280;3549;42.162;24.726;2023-03-23T03:48:10;47842.00;;;-141.97;100.00
7018;BME280;3549;42.162;24.726;2023-03-23T03:50:35;47872.75;;;-141.97;100.00
7018;BME280;3549;42.162;24.726;2023-03-23T03:53:01;47818.94;;;-141.97;100.00
7018;BME280;3549;42.162;24.726;2023-03-23T03:55:26;47834.31;;;-141.97;100.00
7018;BME280;3549;42.162;24.726;2023-03-23T03:57:53;47776.63;;;-141.97;100.00
7018;BME280;3549;42.162;24.726;2023-03-23T04:00:20;47784.34;;;-141.97;100.00
7018;BME280;3549;42.162;24.726;2023-03-23T04:02:48;47757.41;;;-141.97;100.00
7018;BME280;3549;42.162;24.726;2023-03-23T04:05:17;47815.09;;;-141.97;100.00
7018;BME280;3549;42.162;24.726;2023-03-23T04:07:44;47807.41;;;-141.97;100.00
7018;BME280;3549;42.162;24.726;2023-03-23T04:10:11;47784.34;;;-141.97;100.00
7018;BME280;3549;42.162;24.726;2023-03-23T04:12:38;47717.06;;;-141.97;100.00
7018;BME280;3549;42.162;24.726;2023-03-23T04:15:04;47718.97;;;-141.97;100.00
7018;BME280;3549;42.162;24.726;2023-03-23T04:17:29;47653.63;;;-141.97;100.00
7018;BME280;3549;42.162;24.726;2023-03-23T04:19:55;47822.78;;;-141.97;100.00
7018;BME280;3549;42.162;24.726;2023-03-23T04:22:25;47694.00;;;-141.97;100.00
7018;BME280;3549;42.162;24.726;2023-03-23T04:24:56;47799.72;;;-141.97;100.00
7018;BME280;3549;42.162;24.726;2023-03-23T04:27:27;47713.22;;;-141.97;100.00
7018;BME280;3549;42.162;24.726;2023-03-23T04:29:56;47861.22;;;-141.97;100.00
7018;BME280;3549;42.162;24.726;2023-03-23T04:32:26;47690.16;;;-141.97;100.00
7018;BME280;3549;42.162;24.726;2023-03-23T04:34:55;47688.22;;;-141.97;100.00
7018;BME280;3549;42.162;24.726;2023-03-23T04:37:21;47713.22;;;-141.97;100.00
7018;BME280;3549;42.162;24.726;2023-03-23T04:39:51;47692.06;;;-141.97;100.00
7018;BME280;3549;42.162;24.726;2023-03-23T04:42:26;47655.53;;;-141.97;100.00
7018;BME280;3549;42.162;24.726;2023-03-23T04:44:51;47799.72;;;-141.97;100.00
7018;BME280;3549;42.162;24.726;2023-03-23T04:47:18;47732.44;;;-141.97;100.00
7018;BME280;3549;42.162;24.726;2023-03-23T04:49:44;47736.28;;;-141.97;100.00
7018;BME280;3549;42.162;24.726;2023-03-23T04:52:10;47842.00;;;-141.97;100.00
7018;BME280;3549;42.162;24.726;2023-03-23T04:54:35;47893.91;;;-141.97;100.00
7018;BME280;3549;42.162;24.726;2023-03-23T04:57:00;47768.94;;;-141.97;100.00
7018;BME280;3549;42.162;24.726;2023-03-23T04:59:26;47780.47;;;-141.97;100.00
7018;BME280;3549;42.162;24.726;2023-03-23T05:01:53;47692.06;;;-141.97;100.00
7018;BME280;3549;42.162;24.726;2023-03-23T05:04:18;47780.47;;;-141.97;100.00
7018;BME280;3549;42.162;24.726;2023-03-23T05:06:44;47726.66;;;-141.97;100.00
7018;BME280;3549;42.162;24.726;2023-03-23T05:09:10;47699.75;;;-141.97;100.00
7018;BME280;3549;42.162;24.726;2023-03-23T05:11:36;47720.91;;;-141.97;100.00
7018;BME280;3549;42.162;24.726;2023-03-23T05:14:03;47690.16;;;-141.97;100.00
7018;BME280;3549;42.162;24.726;2023-03-23T05:16:29;47638.25;;;-141.97;100.00
7018;BME280;3549;42.162;24.726;2023-03-23T05:18:55;47815.09;;;-141.97;100.00
7018;BME280;3549;42.162;24.726;2023-03-23T05:21:23;47680.53;;;-141.97;100.00
7018;BME280;3549;42.162;24.726;2023-03-23T05:23:48;47788.19;;;-141.97;100.00
7018;BME280;3549;42.162;24.726;2023-03-23T05:26:23;47872.75;;;-141.97;100.00
7018;BME280;3549;42.162;24.726;2023-03-23T05:28:53;47770.88;;;-141.97;100.00
7018;BME280;3549;42.162;24.726;2023-03-23T05:31:19;47799.72;;;-141.97;100.00
7018;BME280;3549;42.162;24.726;2023-03-23T05:33:45;47845.84;;;-141.97;100.00
7018;BME280;3549;42.162;24.726;2023-03-23T05:36:11;47763.19;;;-141.97;100.00
7018;BME280;3549;42.162;24.726;2023-03-23T05:38:41;47813.16;;;-141.97;100.00
7018;BME280;3549;42.162;24.726;2023-03-23T05:41:14;47815.09;;;-141.97;100.00
7018;BME280;3549;42.162;24.726;2023-03-23T05:43:40;47768.94;;;-141.97;100.00
7018;BME280;3549;42.162;24.726;2023-03-23T05:46:05;47761.25;;;-141.97;99.35
7018;BME280;3549;42.162;24.726;2023-03-23T05:48:32;47772.78;;;-141.97;97.91
7018;BME280;3549;42.162;24.726;2023-03-23T05:50:58;47755.50;;;-141.97;96.52
7018;BME280;3549;42.162;24.726;2023-03-23T05:53:23;47755.50;;;-141.97;95.08
7018;BME280;3549;42.162;24.726;2023-03-23T05:55:49;47799.72;;;-141.97;94.23
7018;BME280;3549;42.162;24.726;2023-03-23T05:58:14;47807.41;;;-141.97;92.53
7018;BME280;3549;42.162;24.726;2023-03-23T06:00:40;47818.94;;;-141.97;91.83
7018;BME280;3549;42.162;24.726;2023-03-23T06:03:06;47799.72;;;-141.97;90.31
7018;BME280;3549;42.162;24.726;2023-03-23T06:05:31;47751.66;;;-141.97;89.46
7018;BME280;3549;42.162;24.726;2023-03-23T06:07:58;47793.94;;;-141.97;88.94
7018;BME280;3549;42.162;24.726;2023-03-23T06:10:24;47890.06;;;-141.97;88.92
7018;BME280;3549;42.162;24.726;2023-03-23T06:12:50;47761.25;;;-141.97;88.72
7018;BME280;3549;42.162;24.726;2023-03-23T06:15:17;47711.28;;;-141.97;87.51
7018;BME280;3549;42.162;24.726;2023-03-23T06:17:42;47732.44;;;-141.97;86.49
7018;BME280;3549;42.162;24.726;2023-03-23T06:20:08;47709.38;;;-141.97;86.23
7018;BME280;3549;42.162;24.726;2023-03-23T06:22:38;47807.41;;;-141.97;86.28
7018;BME280;3549;42.162;24.726;2023-03-23T06:25:09;47830.47;;;-141.97;86.23
7018;BME280;3549;42.162;24.726;2023-03-23T06:27:36;47780.47;;;-141.97;85.75
7018;BME280;3549;42.162;24.726;2023-03-23T06:30:04;47832.38;;;-141.97;85.50
7018;BME280;3549;42.162;24.726;2023-03-23T06:32:31;47784.34;;;-141.97;85.41
7018;BME280;3549;42.162;24.726;2023-03-23T06:34:57;47768.94;;;-141.97;84.58
7018;BME280;3549;42.162;24.726;2023-03-23T06:37:23;47784.34;;;-141.97;83.45
7018;BME280;3549;42.162;24.726;2023-03-23T06:39:49;47763.19;;;-141.97;83.11
7018;BME280;3549;42.162;24.726;2023-03-23T06:42:15;47772.78;;;-141.97;81.78
7018;BME280;3549;42.162;24.726;2023-03-23T06:44:40;47619.03;;;-141.97;82.33
7018;BME280;3549;42.162;24.726;2023-03-23T06:47:06;47718.97;;;-141.97;81.07
7018;BME280;3549;42.162;24.726;2023-03-23T06:49:32;47849.69;;;-141.97;80.69
7018;BME280;3549;42.162;24.726;2023-03-23T06:51:58;47792.03;;;-141.97;80.90
7018;BME280;3549;42.162;24.726;2023-03-23T06:54:25;47788.19;;;-141.97;81.14
7018;BME280;3549;42.162;24.726;2023-03-23T06:56:51;47865.06;;;-141.97;80.54
7018;BME280;3549;42.162;24.726;2023-03-23T06:59:16;47815.09;;;-141.97;81.11
7018;BME280;3549;42.162;24.726;2023-03-23T07:01:42;47836.22;;;-141.97;80.87
7018;BME280;3549;42.162;24.726;2023-03-23T07:04:07;47792.03;;;-141.97;81.52
7018;BME280;3549;42.162;24.726;2023-03-23T07:06:33;47790.09;;;-141.97;80.82
7018;BME280;3549;42.162;24.726;2023-03-23T07:08:58;47715.13;;;-141.97;80.14
7018;BME280;3549;42.162;24.726;2023-03-23T07:11:23;47734.34;;;-141.97;78.68
7018;BME280;3549;42.162;24.726;2023-03-23T07:13:50;47840.06;;;-141.97;77.96
7018;BME280;3549;42.162;24.726;2023-03-23T07:16:16;47657.47;;;-141.97;77.00
7018;BME280;3549;42.162;24.726;2023-03-23T07:18:43;47699.75;;;-141.97;76.75
7018;BME280;3549;42.162;24.726;2023-03-23T07:21:08;47813.16;;;-141.97;75.72
7018;BME280;3549;42.162;24.726;2023-03-23T07:23:34;47768.94;;;-141.97;74.80
7018;BME280;3549;42.162;24.726;2023-03-23T07:25:59;47776.63;;;-141.97;73.31
7018;BME280;3549;42.162;24.726;2023-03-23T07:28:25;47855.44;;;-141.97;73.70
7018;BME280;3549;42.162;24.726;2023-03-23T07:30:51;47799.72;;;-141.97;72.32
7018;BME280;3549;42.162;24.726;2023-03-23T07:33:17;47780.47;;;-141.97;72.55
7018;BME280;3549;42.162;24.726;2023-03-23T07:35:42;47670.91;;;-141.97;70.38
7018;BME280;3549;42.162;24.726;2023-03-23T07:38:08;47745.88;;;-141.97;70.01
7018;BME280;3549;42.162;24.726;2023-03-23T07:40:34;47632.47;;;-141.97;68.39
7018;BME280;3549;42.162;24.726;2023-03-23T07:43:01;47761.25;;;-141.97;68.50
7018;BME280;3549;42.162;24.726;2023-03-23T07:45:27;47757.41;;;-141.97;67.78
7018;BME280;3549;42.162;24.726;2023-03-23T07:47:53;47782.41;;;-141.97;65.14
7018;BME280;3549;42.162;24.726;2023-03-23T07:50:19;47726.66;;;-141.97;65.14
7018;BME280;3549;42.162;24.726;2023-03-23T07:52:50;47749.72;;;-141.97;65.85
7018;BME280;3549;42.162;24.726;2023-03-23T07:55:16;47672.84;;;-141.97;64.77
7018;BME280;3549;42.162;24.726;2023-03-23T07:57:45;47757.41;;;-141.97;64.03
7018;BME280;3549;42.162;24.726;2023-03-23T08:00:13;47695.91;;;-141.97;63.58
7018;BME280;3549;42.162;24.726;2023-03-23T08:02:41;47753.56;;;-141.97;63.74
7018;BME280;3549;42.162;24.726;2023-03-23T08:05:07;47757.41;;;-141.97;63.50
7018;BME280;3549;42.162;24.726;2023-03-23T08:07:34;47742.03;;;-141.97;62.69
7018;BME280;3549;42.162;24.726;2023-03-23T08:10:02;47759.34;;;-141.97;61.78
7018;BME280;3549;42.162;24.726;2023-03-23T08:12:28;47720.91;;;-141.97;61.07
7018;BME280;3549;42.162;24.726;2023-03-23T08:14:53;47749.72;;;-141.97;61.10
7018;BME280;3549;42.162;24.726;2023-03-23T08:17:19;47761.25;;;-141.97;59.98
7018;BME280;3549;42.162;24.726;2023-03-23T08:19:45;47726.66;;;-141.97;60.12
7018;BME280;3549;42.162;24.726;2023-03-23T08:22:11;47799.72;;;-141.97;59.94
7018;BME280;3549;42.162;24.726;2023-03-23T08:24:37;47761.25;;;-141.97;60.12
7018;BME280;3549;42.162;24.726;2023-03-23T08:27:03;47726.66;;;-141.97;58.73
7018;BME280;3549;42.162;24.726;2023-03-23T08:29:30;47761.25;;;-141.97;59.09
7018;BME280;3549;42.162;24.726;2023-03-23T08:31:57;47865.06;;;-141.97;59.42
7018;BME280;3549;42.162;24.726;2023-03-23T08:34:22;47655.53;;;-141.97;57.58
7018;BME280;3549;42.162;24.726;2023-03-23T08:36:48;47715.13;;;-141.97;56.67
7018;BME280;3549;42.162;24.726;2023-03-23T08:39:13;47713.22;;;-141.97;57.13
7018;BME280;3549;42.162;24.726;2023-03-23T08:41:43;47707.44;;;-141.97;57.23
7018;BME280;3549;42.162;24.726;2023-03-23T08:44:12;47755.50;;;-141.97;56.91
7018;BME280;3549;42.162;24.726;2023-03-23T08:46:38;47711.28;;;-141.97;55.79
7018;BME280;3549;42.162;24.726;2023-03-23T08:49:04;47747.81;;;-141.97;54.18
7018;BME280;3549;42.162;24.726;2023-03-23T08:51:31;47601.72;;;-141.97;53.73
7018;BME280;3549;42.162;24.726;2023-03-23T08:53:56;47878.53;;;-141.97;54.19
7018;BME280;3549;42.162;24.726;2023-03-23T08:56:22;47680.53;;;-141.97;53.30
7018;BME280;3549;42.162;24.726;2023-03-23T08:58:47;47669.00;;;-141.97;53.66
7018;BME280;3549;42.162;24.726;2023-03-23T09:01:14;47609.41;;;-141.97;53.21
7018;BME280;3549;42.162;24.726;2023-03-23T09:03:39;47688.22;;;-141.97;53.59
7018;BME280;3549;42.162;24.726;2023-03-23T09:06:07;47676.69;;;-141.97;52.20
7018;BME280;3549;42.162;24.726;2023-03-23T09:08:34;47595.97;;;-141.97;51.31
7018;BME280;3549;42.162;24.726;2023-03-23T09:11:05;47657.47;;;-141.97;51.21
7018;BME280;3549;42.162;24.726;2023-03-23T09:13:32;47738.19;;;-141.97;49.70
7018;BME280;3549;42.162;24.726;2023-03-23T09:15:58;47676.69;;;-141.97;50.16
7018;BME280;3549;42.162;24.726;2023-03-23T09:18:23;47597.88;;;-141.97;50.67
7018;BME280;3549;42.162;24.726;2023-03-23T09:20:50;47715.13;;;-141.97;50.53
7018;BME280;3549;42.162;24.726;2023-03-23T09:23:16;47672.84;;;-141.97;50.38
7018;BME280;3549;42.162;24.726;2023-03-23T09:25:42;47569.06;;;-141.97;49.20
7018;BME280;3549;42.162;24.726;2023-03-23T09:28:08;47717.06;;;-141.97;49.75
7018;BME280;3549;42.162;24.726;2023-03-23T09:30:34;47709.38;;;-141.97;48.08
7018;BME280;3549;42.162;24.726;2023-03-23T09:33:02;47849.69;;;-141.97;48.73
7018;BME280;3549;42.162;24.726;2023-03-23T09:35:28;47694.00;;;-141.97;48.93
7018;BME280;3549;42.162;24.726;2023-03-23T09:37:55;47695.91;;;-141.97;48.97
7018;BME280;3549;42.162;24.726;2023-03-23T09:45:26;47720.91;;;-141.97;44.82
7018;BME280;3549;42.162;24.726;2023-03-23T09:54:39;47726.66;;;-141.97;43.67
7018;BME280;3549;42.162;24.726;2023-03-23T09:57:15;47692.06;;;-141.97;42.82
7018;BME280;3549;42.162;24.726;2023-03-23T09:59:51;47738.19;;;-141.97;42.60
7018;BME280;3549;42.162;24.726;2023-03-23T10:02:24;47703.59;;;-141.97;42.02
7018;BME280;3549;42.162;24.726;2023-03-23T10:04:54;47659.38;;;-141.97;41.73
7018;BME280;3549;42.162;24.726;2023-03-23T10:07:23;47715.13;;;-141.97;41.47
7018;BME280;3549;42.162;24.726;2023-03-23T10:09:53;47855.44;;;-141.97;41.31
7018;BME280;3549;42.162;24.726;2023-03-23T10:12:48;47793.94;;;-141.97;42.02
7018;BME280;3549;42.162;24.726;2023-03-23T10:15:21;47718.97;;;-141.97;41.16
7018;BME280;3549;42.162;24.726;2023-03-23T10:18:02;47672.84;;;-141.97;40.99
7018;BME280;3549;42.162;24.726;2023-03-23T10:20:37;47580.59;;;-141.97;40.54
7018;BME280;3549;42.162;24.726;2023-03-23T10:25:52;47682.47;;;-141.97;39.20
7018;BME280;3549;42.162;24.726;2023-03-23T10:28:24;47690.16;;;-141.97;39.48
7018;BME280;3549;42.162;24.726;2023-03-23T10:30:55;47649.78;;;-141.97;39.42
7018;BME280;3549;42.162;24.726;2023-03-23T10:33:33;47713.22;;;-141.97;40.10
7018;BME280;3549;42.162;24.726;2023-03-23T10:41:25;47661.31;;;-141.97;38.35
7018;BME280;3549;42.162;24.726;2023-03-23T10:43:51;47674.78;;;-141.97;38.10
7018;BME280;3549;42.162;24.726;2023-03-23T10:46:33;47645.94;;;-141.97;36.79
7018;BME280;3549;42.162;24.726;2023-03-23T10:49:06;47440.28;;;-141.97;36.65
7018;BME280;3549;42.162;24.726;2023-03-23T10:51:39;47572.91;;;-141.97;35.00
7018;BME280;3549;42.162;24.726;2023-03-23T10:54:06;47697.84;;;-141.97;35.08
7018;BME280;3549;42.162;24.726;2023-03-23T10:56:41;47701.69;;;-141.97;35.24
7018;BME280;3549;42.162;24.726;2023-03-23T10:59:15;47711.28;;;-141.97;35.36
7018;BME280;3549;42.162;24.726;2023-03-23T11:01:47;47817.00;;;-141.97;35.42
7018;BME280;3549;42.162;24.726;2023-03-23T11:04:15;47722.81;;;-141.97;36.38
7018;BME280;3549;42.162;24.726;2023-03-23T11:06:46;47570.97;;;-141.97;36.44
7018;BME280;3549;42.162;24.726;2023-03-23T11:09:17;47709.38;;;-141.97;36.96
7018;BME280;3549;42.162;24.726;2023-03-23T11:11:53;47722.81;;;-141.97;36.99
7018;BME280;3549;42.162;24.726;2023-03-23T11:14:34;47592.13;;;-141.97;38.48
7018;BME280;3549;42.162;24.726;2023-03-23T11:17:02;47676.69;;;-141.97;39.37
7018;BME280;3549;42.162;24.726;2023-03-23T11:19:31;47703.59;;;-141.97;40.20
7018;BME280;3549;42.162;24.726;2023-03-23T11:24:32;47818.94;;;-141.97;39.68
7018;BME280;3549;42.162;24.726;2023-03-23T11:26:59;47522.91;;;-141.97;39.50
7018;BME280;3549;42.162;24.726;2023-03-23T11:29:26;47876.59;;;-141.97;38.40
7018;BME280;3549;42.162;24.726;2023-03-23T11:32:03;47717.06;;;-141.97;38.23
7018;BME280;3549;42.162;24.726;2023-03-23T11:34:35;47753.56;;;-141.97;38.23
7018;BME280;3549;42.162;24.726;2023-03-23T11:37:08;47707.44;;;-141.97;38.02
7018;BME280;3549;42.162;24.726;2023-03-23T11:39:53;47722.81;;;-141.97;37.81
7018;BME280;3549;42.162;24.726;2023-03-23T11:42:24;47692.06;;;-141.97;37.57
7018;BME280;3549;42.162;24.726;2023-03-23T11:44:53;47626.72;;;-141.97;38.50
7018;BME280;3549;42.162;24.726;2023-03-23T11:47:47;47709.38;;;-141.97;37.39
7018;BME280;3549;42.162;24.726;2023-03-23T11:50:32;47703.59;;;-141.97;38.55
7018;BME280;3549;42.162;24.726;2023-03-23T11:53:08;47718.97;;;-141.97;38.93
7018;BME280;3549;42.162;24.726;2023-03-23T11:56:01;47778.56;;;-141.97;39.07
7018;BME280;3549;42.162;24.726;2023-03-23T11:58:29;47765.09;;;-141.97;39.90
7018;BME280;3549;42.162;24.726;2023-03-23T12:03:56;47738.19;;;-141.97;42.41
7018;BME280;3549;42.162;24.726;2023-03-23T12:09:25;47680.53;;;-141.97;43.70
7018;BME280;3549;42.162;24.726;2023-03-23T12:12:04;47722.81;;;-141.97;43.84
7018;BME280;3549;42.162;24.726;2023-03-23T12:17:38;47726.66;;;-141.97;43.23
7018;BME280;3549;42.162;24.726;2023-03-23T12:30:35;47726.66;;;-141.97;41.36
7018;BME280;3549;42.162;24.726;2023-03-23T12:44:11;47617.09;;;-141.97;37.83
7018;BME280;3549;42.162;24.726;2023-03-23T12:47:06;47674.78;;;-141.97;38.58
7018;BME280;3549;42.162;24.726;2023-03-23T12:49:50;47655.53;;;-141.97;39.24
7018;BME280;3549;42.162;24.726;2023-03-23T12:52:24;47830.47;;;-141.97;39.71
7018;BME280;3549;42.162;24.726;2023-03-23T12:55:05;47711.28;;;-141.97;38.97
7018;BME280;3549;42.162;24.726;2023-03-23T12:58:05;47661.31;;;-141.97;37.78
7018;BME280;3549;42.162;24.726;2023-03-23T13:05:53;47688.22;;;-141.97;38.44
7018;BME280;3549;42.162;24.726;2023-03-23T13:11:20;47718.97;;;-141.97;38.72
7018;BME280;3549;42.162;24.726;2023-03-23T13:13:54;47705.53;;;-141.97;39.59
7018;BME280;3549;42.162;24.726;2023-03-23T13:16:51;47703.59;;;-141.97;38.80
7018;BME280;3549;42.162;24.726;2023-03-23T13:24:33;47674.78;;;-141.97;38.81
7018;BME280;3549;42.162;24.726;2023-03-23T13:27:01;47622.88;;;-141.97;37.63
7018;BME280;3549;42.162;24.726;2023-03-23T13:29:26;47782.41;;;-141.97;36.96
7018;BME280;3549;42.162;24.726;2023-03-23T13:32:05;47676.69;;;-141.97;36.24
7018;BME280;3549;42.162;24.726;2023-03-23T13:34:31;47505.63;;;-141.97;35.79
7018;BME280;3549;42.162;24.726;2023-03-23T13:37:05;47711.28;;;-141.97;38.08
7018;BME280;3549;42.162;24.726;2023-03-23T13:39:54;47661.31;;;-141.97;37.77
7018;BME280;3549;42.162;24.726;2023-03-23T13:42:26;47642.09;;;-141.97;37.30
7018;BME280;3549;42.162;24.726;2023-03-23T13:45:24;47607.50;;;-141.97;37.23
7018;BME280;3549;42.162;24.726;2023-03-23T13:55:51;47594.03;;;-141.97;38.05
7018;BME280;3549;42.162;24.726;2023-03-23T13:58:24;47667.06;;;-141.97;40.81
7018;BME280;3549;42.162;24.726;2023-03-23T14:01:12;47669.00;;;-141.97;40.08
7018;BME280;3549;42.162;24.726;2023-03-23T14:03:42;47674.78;;;-141.97;39.27
7018;BME280;3549;42.162;24.726;2023-03-23T14:06:16;47845.84;;;-141.97;37.99
7018;BME280;3549;42.162;24.726;2023-03-23T14:08:44;47636.31;;;-141.97;36.49
7018;BME280;3549;42.162;24.726;2023-03-23T14:11:31;47630.56;;;-141.97;35.02
7018;BME280;3549;42.162;24.726;2023-03-23T14:16:35;47645.94;;;-141.97;35.34
7018;BME280;3549;42.162;24.726;2023-03-23T14:19:03;47657.47;;;-141.97;35.43
7018;BME280;3549;42.162;24.726;2023-03-23T14:21:38;47655.53;;;-141.97;36.11
7018;BME280;3549;42.162;24.726;2023-03-23T14:24:39;47657.47;;;-141.97;36.04
7018;BME280;3549;42.162;24.726;2023-03-23T14:29:30;47657.47;;;-141.97;35.59
7018;BME280;3549;42.162;24.726;2023-03-23T14:31:57;47592.13;;;-141.97;34.88
7018;BME280;3549;42.162;24.726;2023-03-23T14:34:30;47863.13;;;-141.97;34.66
7018;BME280;3549;42.162;24.726;2023-03-23T14:36:57;47549.84;;;-141.97;35.25
7018;BME280;3549;42.162;24.726;2023-03-23T14:39:27;47632.47;;;-141.97;35.75
7018;BME280;3549;42.162;24.726;2023-03-23T14:42:03;47636.31;;;-141.97;34.88
7018;BME280;3549;42.162;24.726;2023-03-23T14:44:39;47617.09;;;-141.97;34.53